createdAt,value
2019-04-22T00:00:11.169Z,981.25
2019-04-22T00:01:13.776Z,981.23
2019-04-22T00:02:12.937Z,981.26
2019-04-22T00:03:14.214Z,981.17
2019-04-22T00:04:17.399Z,981.19
2019-04-22T00:05:20.238Z,981.15
2019-04-22T00:06:34.116Z,981.15
2019-04-22T00:07:35.858Z,981.17
2019-04-22T00:09:41.843Z,981.12
2019-04-22T00:10:41.999Z,981.12
2019-04-22T00:11:28.863Z,981.11
2019-04-22T00:12:28.015Z,981.11
2019-04-22T00:14:30.890Z,981.05
2019-04-22T00:15:34.011Z,981.03
2019-04-22T00:16:34.295Z,981.08
2019-04-22T00:17:30.510Z,981.05
2019-04-22T00:18:48.006Z,981.07
2019-04-22T00:19:30.365Z,981.09
2019-04-22T00:20:35.417Z,980.94
2019-04-22T00:22:28.873Z,980.95
2019-04-22T00:23:24.680Z,980.99
2019-04-22T00:24:39.105Z,980.96
2019-04-22T00:27:42.440Z,980.89
2019-04-22T00:28:36.663Z,980.95
2019-04-22T00:29:53.875Z,980.98
2019-04-22T00:30:34.298Z,981.01
2019-04-22T00:31:33.204Z,980.98
2019-04-22T00:33:32.314Z,980.92
2019-04-22T00:34:29.407Z,980.92
2019-04-22T00:35:38.316Z,980.86
2019-04-22T00:36:35.030Z,980.85
2019-04-22T00:38:38.743Z,980.85
2019-04-22T00:39:33.731Z,980.80
2019-04-22T00:41:40.545Z,980.83
2019-04-22T00:44:39.077Z,980.77
2019-04-22T00:46:38.303Z,980.77
2019-04-22T00:48:35.959Z,980.72
2019-04-22T00:50:09.276Z,980.72
2019-04-22T00:50:37.433Z,980.71
2019-04-22T00:52:34.391Z,980.69
2019-04-22T00:53:35.256Z,980.65
2019-04-22T00:54:43.970Z,980.57
2019-04-22T00:55:38.089Z,980.62
2019-04-22T00:56:28.385Z,980.58
2019-04-22T00:57:32.448Z,980.52
2019-04-22T00:58:36.771Z,980.54
2019-04-22T00:59:32.971Z,980.54
2019-04-22T01:01:23.883Z,980.46
2019-04-22T01:03:43.726Z,980.54
2019-04-22T01:04:44.215Z,980.47
2019-04-22T01:05:30.225Z,980.55
2019-04-22T01:06:35.900Z,980.48
2019-04-22T01:08:43.506Z,980.52
2019-04-22T01:09:43.234Z,980.52
2019-04-22T01:10:39.023Z,980.44
2019-04-22T01:11:34.966Z,980.48
2019-04-22T01:12:28.561Z,980.47
2019-04-22T01:13:31.376Z,980.47
2019-04-22T01:14:38.252Z,980.42
2019-04-22T01:16:35.942Z,980.45
2019-04-22T01:18:32.604Z,980.40
2019-04-22T01:19:38.951Z,980.47
2019-04-22T01:21:00.846Z,980.39
2019-04-22T01:22:28.543Z,980.41
2019-04-22T01:23:34.544Z,980.41
2019-04-22T01:24:32.793Z,980.47
2019-04-22T01:25:30.965Z,980.36
2019-04-22T01:26:29.917Z,980.36
2019-04-22T01:27:26.318Z,980.40
2019-04-22T01:28:27.295Z,980.37
2019-04-22T01:29:22.626Z,980.36
2019-04-22T01:30:21.171Z,980.31
2019-04-22T01:31:17.883Z,980.32
2019-04-22T01:32:21.037Z,980.35
2019-04-22T01:33:21.068Z,980.28
2019-04-22T01:34:27.875Z,980.30
2019-04-22T01:35:20.953Z,980.28
2019-04-22T01:36:30.113Z,980.31
2019-04-22T01:37:31.634Z,980.28
2019-04-22T01:38:34.962Z,980.29
2019-04-22T01:39:39.022Z,980.29
2019-04-22T01:40:38.964Z,980.24
2019-04-22T01:41:41.824Z,980.27
2019-04-22T01:42:41.206Z,980.28
2019-04-22T01:43:41.003Z,980.19
2019-04-22T01:45:26.734Z,980.30
2019-04-22T01:46:41.830Z,980.23
2019-04-22T01:47:36.702Z,980.20
2019-04-22T01:48:40.580Z,980.15
2019-04-22T01:49:27.609Z,980.16
2019-04-22T01:50:26.310Z,980.17
2019-04-22T01:51:45.220Z,980.16
2019-04-22T01:52:41.620Z,980.20
2019-04-22T01:53:43.280Z,980.15
2019-04-22T01:54:45.421Z,980.14
2019-04-22T01:55:38.082Z,980.10
2019-04-22T01:56:27.367Z,980.08
2019-04-22T01:57:34.990Z,980.08
2019-04-22T01:59:31.900Z,980.07
2019-04-22T02:00:36.003Z,980.07
2019-04-22T02:01:30.747Z,980.01
2019-04-22T02:02:30.478Z,980.01
2019-04-22T02:03:44.409Z,980.00
2019-04-22T02:04:39.734Z,979.96
2019-04-22T02:05:35.766Z,979.99
2019-04-22T02:06:30.288Z,979.98
2019-04-22T02:07:34.344Z,979.98
2019-04-22T02:08:31.393Z,979.99
2019-04-22T02:10:40.375Z,980.02
2019-04-22T02:12:29.848Z,980.02
2019-04-22T02:13:38.188Z,979.96
2019-04-22T02:14:39.336Z,979.93
2019-04-22T02:15:46.511Z,979.96
2019-04-22T02:16:27.614Z,979.93
2019-04-22T02:17:38.293Z,979.92
2019-04-22T02:18:41.995Z,979.96
2019-04-22T02:19:41.420Z,979.88
2019-04-22T02:20:35.899Z,979.88
2019-04-22T02:21:38.212Z,979.87
2019-04-22T02:22:52.320Z,979.84
2019-04-22T02:24:42.506Z,979.78
2019-04-22T02:25:42.709Z,979.81
2019-04-22T02:26:31.395Z,979.82
2019-04-22T02:27:39.006Z,979.83
2019-04-22T02:30:54.272Z,979.73
2019-04-22T02:31:44.306Z,979.73
2019-04-22T02:34:01.256Z,979.75
2019-04-22T02:34:37.461Z,979.71
2019-04-22T02:36:33.906Z,979.72
2019-04-22T02:38:51.851Z,979.65
2019-04-22T02:40:58.450Z,979.67
2019-04-22T02:41:31.187Z,979.64
2019-04-22T02:42:35.247Z,979.60
2019-04-22T02:43:51.879Z,979.60
2019-04-22T02:44:28.725Z,979.56
2019-04-22T02:45:52.590Z,979.52
2019-04-22T02:46:56.792Z,979.54
2019-04-22T02:47:27.634Z,979.53
2019-04-22T02:49:37.360Z,979.50
2019-04-22T02:50:43.901Z,979.55
2019-04-22T02:51:32.877Z,979.52
2019-04-22T02:52:34.779Z,979.52
2019-04-22T02:54:15.147Z,979.47
2019-04-22T02:54:51.016Z,979.45
2019-04-22T02:55:32.369Z,979.41
2019-04-22T02:56:38.105Z,979.47
2019-04-22T02:57:45.077Z,979.48
2019-04-22T02:59:39.860Z,979.43
2019-04-22T03:00:46.669Z,979.42
2019-04-22T03:02:50.644Z,979.42
2019-04-22T03:04:41.453Z,979.43
2019-04-22T03:05:51.090Z,979.36
2019-04-22T03:06:38.562Z,979.35
2019-04-22T03:07:40.633Z,979.30
2019-04-22T03:10:37.176Z,979.33
2019-04-22T03:11:24.714Z,979.27
2019-04-22T03:12:28.456Z,979.24
2019-04-22T03:13:38.266Z,979.22
2019-04-22T03:14:40.422Z,979.22
2019-04-22T03:15:38.044Z,979.34
2019-04-22T03:16:31.953Z,979.21
2019-04-22T03:17:34.363Z,979.22
2019-04-22T03:20:33.530Z,979.20
2019-04-22T03:21:38.060Z,979.16
2019-04-22T03:22:28.684Z,979.17
2019-04-22T03:23:58.619Z,979.16
2019-04-22T03:24:36.285Z,979.19
2019-04-22T03:26:00.363Z,979.10
2019-04-22T03:26:38.889Z,979.17
2019-04-22T03:28:44.421Z,979.12
2019-04-22T03:30:00.911Z,979.07
2019-04-22T03:33:43.607Z,979.10
2019-04-22T03:36:05.971Z,978.98
2019-04-22T03:37:02.480Z,979.04
2019-04-22T03:40:46.661Z,978.98
2019-04-22T03:41:57.319Z,978.99
2019-04-22T03:42:52.081Z,979.01
2019-04-22T03:46:50.962Z,978.94
2019-04-22T03:47:48.050Z,978.86
2019-04-22T03:48:45.856Z,978.98
2019-04-22T03:49:57.841Z,978.94
2019-04-22T03:50:28.031Z,978.90
2019-04-22T03:52:30.969Z,978.97
2019-04-22T03:53:32.659Z,978.98
2019-04-22T03:54:53.883Z,978.88
2019-04-22T03:57:18.449Z,978.88
2019-04-22T03:57:50.437Z,978.93
2019-04-22T03:58:49.556Z,978.93
2019-04-22T03:59:48.094Z,978.91
2019-04-22T04:00:47.811Z,978.89
2019-04-22T04:01:37.055Z,978.89
2019-04-22T04:02:45.723Z,978.86
2019-04-22T04:03:36.318Z,978.86
2019-04-22T04:04:43.586Z,978.85
2019-04-22T04:07:47.482Z,978.84
2019-04-22T04:08:26.368Z,978.86
2019-04-22T04:10:40.097Z,978.84
2019-04-22T04:12:53.950Z,978.78
2019-04-22T04:13:37.403Z,978.84
2019-04-22T04:15:29.906Z,978.91
2019-04-22T04:16:52.122Z,978.82
2019-04-22T04:18:46.595Z,978.87
2019-04-22T04:20:44.779Z,978.82
2019-04-22T04:21:41.322Z,978.89
2019-04-22T04:24:53.809Z,978.83
2019-04-22T04:27:50.860Z,978.82
2019-04-22T04:28:39.796Z,978.82
2019-04-22T04:29:58.079Z,978.86
2019-04-22T04:30:31.231Z,978.92
2019-04-22T04:35:07.685Z,978.83
2019-04-22T04:37:52.502Z,978.86
2019-04-22T04:38:46.418Z,978.91
2019-04-22T04:39:53.454Z,978.88
2019-04-22T04:40:41.972Z,978.74
2019-04-22T04:41:57.440Z,978.78
2019-04-22T04:42:46.448Z,978.80
2019-04-22T04:44:59.239Z,978.76
2019-04-22T04:45:44.884Z,978.83
2019-04-22T04:47:49.345Z,978.79
2019-04-22T04:48:56.173Z,978.72
2019-04-22T04:49:37.451Z,978.75
2019-04-22T04:50:34.339Z,978.78
2019-04-22T04:51:33.252Z,978.77
2019-04-22T04:53:02.614Z,978.75
2019-04-22T04:54:53.844Z,978.80
2019-04-22T04:55:35.044Z,978.74
2019-04-22T04:56:42.441Z,978.78
2019-04-22T04:58:55.853Z,978.80
2019-04-22T05:00:10.860Z,978.83
2019-04-22T05:00:57.707Z,978.81
2019-04-22T05:01:45.084Z,978.84
2019-04-22T05:03:49.326Z,978.81
2019-04-22T05:05:45.654Z,978.81
2019-04-22T05:07:36.788Z,978.78
2019-04-22T05:09:01.485Z,978.82
2019-04-22T05:09:34.640Z,978.86
2019-04-22T05:10:47.936Z,978.78
2019-04-22T05:11:42.988Z,978.84
2019-04-22T05:12:53.091Z,978.72
2019-04-22T05:13:52.857Z,978.77
2019-04-22T05:15:55.369Z,978.81
2019-04-22T05:17:35.177Z,978.78
2019-04-22T05:18:44.274Z,978.75
2019-04-22T05:19:26.553Z,978.63
2019-04-22T05:21:22.412Z,978.69
2019-04-22T05:23:45.599Z,978.73
2019-04-22T05:24:28.268Z,978.69
2019-04-22T05:25:36.845Z,978.72
2019-04-22T05:26:40.033Z,978.64
2019-04-22T05:27:41.198Z,978.64
2019-04-22T05:28:35.057Z,978.66
2019-04-22T05:29:54.162Z,978.62
2019-04-22T05:30:26.755Z,978.65
2019-04-22T05:31:33.980Z,978.60
2019-04-22T05:33:34.818Z,978.55
2019-04-22T05:34:36.562Z,978.58
2019-04-22T05:35:37.828Z,978.51
2019-04-22T05:36:28.247Z,978.54
2019-04-22T05:37:31.007Z,978.52
2019-04-22T05:39:28.451Z,978.50
2019-04-22T05:40:28.239Z,978.48
2019-04-22T05:41:32.281Z,978.45
2019-04-22T05:42:32.169Z,978.48
2019-04-22T05:43:27.369Z,978.44
2019-04-22T05:44:29.548Z,978.47
2019-04-22T05:45:31.457Z,978.46
2019-04-22T05:46:34.535Z,978.42
2019-04-22T05:47:39.321Z,978.40
2019-04-22T05:49:31.183Z,978.36
2019-04-22T05:50:24.542Z,978.37
2019-04-22T05:51:38.522Z,978.37
2019-04-22T05:52:36.481Z,978.35
2019-04-22T05:53:32.395Z,978.32
2019-04-22T05:54:27.870Z,978.30
2019-04-22T05:55:30.600Z,978.25
2019-04-22T05:56:38.655Z,978.22
2019-04-22T05:57:24.738Z,978.27
2019-04-22T05:58:38.220Z,978.28
2019-04-22T05:59:39.552Z,978.22
2019-04-22T06:01:06.581Z,978.21
2019-04-22T06:01:48.124Z,978.24
2019-04-22T06:02:47.581Z,978.21
2019-04-22T06:03:37.907Z,978.21
2019-04-22T06:04:29.625Z,978.21
2019-04-22T06:05:34.351Z,978.12
2019-04-22T06:06:22.440Z,978.17
2019-04-22T06:07:33.724Z,978.15
2019-04-22T06:08:41.600Z,978.24
2019-04-22T06:09:32.649Z,978.20
2019-04-22T06:10:39.835Z,978.16
2019-04-22T06:11:28.419Z,978.13
2019-04-22T06:12:20.949Z,978.17
2019-04-22T06:13:33.047Z,978.18
2019-04-22T06:14:31.340Z,978.12
2019-04-22T06:16:38.170Z,978.15
2019-04-22T06:17:43.137Z,978.15
2019-04-22T06:18:33.500Z,978.12
2019-04-22T06:19:24.800Z,978.15
2019-04-22T06:20:32.739Z,978.15
2019-04-22T06:22:43.307Z,978.16
2019-04-22T06:23:44.073Z,978.17
2019-04-22T06:24:38.553Z,978.12
2019-04-22T06:26:48.926Z,978.12
2019-04-22T06:27:30.479Z,978.09
2019-04-22T06:28:41.409Z,978.03
2019-04-22T06:29:25.053Z,978.10
2019-04-22T06:30:29.148Z,978.06
2019-04-22T06:31:54.452Z,978.03
2019-04-22T06:33:31.995Z,978.03
2019-04-22T06:34:40.407Z,978.04
2019-04-22T06:35:32.495Z,977.97
2019-04-22T06:36:29.487Z,977.98
2019-04-22T06:37:35.053Z,978.06
2019-04-22T06:39:36.916Z,978.03
2019-04-22T06:42:28.472Z,978.11
2019-04-22T06:43:29.137Z,978.07
2019-04-22T06:44:38.904Z,977.99
2019-04-22T06:45:33.772Z,977.96
2019-04-22T06:46:30.101Z,977.96
2019-04-22T06:47:52.696Z,978.01
2019-04-22T06:49:35.846Z,978.02
2019-04-22T06:50:30.262Z,978.05
2019-04-22T06:52:35.014Z,977.87
2019-04-22T06:53:35.961Z,977.90
2019-04-22T06:55:33.016Z,977.89
2019-04-22T06:56:35.205Z,977.93
2019-04-22T06:57:39.450Z,977.83
2019-04-22T06:58:36.592Z,977.87
2019-04-22T06:59:36.373Z,977.82
2019-04-22T07:00:38.133Z,977.83
2019-04-22T07:02:46.453Z,977.80
2019-04-22T07:03:42.779Z,977.81
2019-04-22T07:04:33.680Z,977.82
2019-04-22T07:05:28.675Z,977.79
2019-04-22T07:06:42.345Z,977.88
2019-04-22T07:07:39.988Z,977.76
2019-04-22T07:09:07.825Z,977.77
2019-04-22T07:09:43.498Z,977.75
2019-04-22T07:12:31.375Z,977.78
2019-04-22T07:13:27.468Z,977.74
2019-04-22T07:14:35.632Z,977.76
2019-04-22T07:15:46.419Z,977.75
2019-04-22T07:16:37.877Z,977.76
2019-04-22T07:17:45.922Z,977.64
2019-04-22T07:18:35.951Z,977.70
2019-04-22T07:19:28.863Z,977.72
2019-04-22T07:20:36.749Z,977.73
2019-04-22T07:21:37.630Z,977.74
2019-04-22T07:22:38.942Z,977.65
2019-04-22T07:24:35.594Z,977.59
2019-04-22T07:25:35.047Z,977.63
2019-04-22T07:27:34.247Z,977.55
2019-04-22T07:28:29.122Z,977.53
2019-04-22T07:29:39.246Z,977.59
2019-04-22T07:30:28.017Z,977.57
2019-04-22T07:31:34.391Z,977.58
2019-04-22T07:32:58.066Z,977.53
2019-04-22T07:33:39.314Z,977.52
2019-04-22T07:34:27.740Z,977.50
2019-04-22T07:38:31.360Z,977.61
2019-04-22T07:39:35.476Z,977.59
2019-04-22T07:40:40.345Z,977.55
2019-04-22T07:41:41.113Z,977.63
2019-04-22T07:43:55.719Z,977.60
2019-04-22T07:44:31.266Z,977.52
2019-04-22T07:45:36.256Z,977.56
2019-04-22T07:46:26.358Z,977.57
2019-04-22T07:47:40.915Z,977.55
2019-04-22T07:48:43.319Z,977.57
2019-04-22T07:49:39.028Z,977.54
2019-04-22T07:52:35.398Z,977.57
2019-04-22T07:53:33.572Z,977.61
2019-04-22T07:54:25.895Z,977.56
2019-04-22T07:57:28.733Z,977.49
2019-04-22T07:59:28.353Z,977.55
2019-04-22T08:01:26.856Z,977.50
2019-04-22T08:02:37.882Z,977.46
2019-04-22T08:03:46.753Z,977.46
2019-04-22T08:04:34.653Z,977.46
2019-04-22T08:06:34.647Z,977.43
2019-04-22T08:07:38.356Z,977.36
2019-04-22T08:08:38.842Z,977.49
2019-04-22T08:11:42.321Z,977.35
2019-04-22T08:12:38.614Z,977.36
2019-04-22T08:13:38.537Z,977.26
2019-04-22T08:14:42.258Z,977.26
2019-04-22T08:15:38.691Z,977.31
2019-04-22T08:16:35.047Z,977.36
2019-04-22T08:18:35.901Z,977.30
2019-04-22T08:19:33.133Z,977.29
2019-04-22T08:20:31.915Z,977.24
2019-04-22T08:21:44.377Z,977.30
2019-04-22T08:22:33.964Z,977.24
2019-04-22T08:23:31.330Z,977.30
2019-04-22T08:25:38.835Z,977.27
2019-04-22T08:26:41.178Z,977.26
2019-04-22T08:27:30.176Z,977.23
2019-04-22T08:28:39.302Z,977.18
2019-04-22T08:29:37.096Z,977.25
2019-04-22T08:33:35.450Z,977.19
2019-04-22T08:34:38.892Z,977.16
2019-04-22T08:35:52.299Z,977.21
2019-04-22T08:36:40.964Z,977.20
2019-04-22T08:37:48.066Z,977.15
2019-04-22T08:38:37.611Z,977.14
2019-04-22T08:40:43.122Z,977.10
2019-04-22T08:41:34.336Z,977.11
2019-04-22T08:42:36.090Z,977.16
2019-04-22T08:43:32.969Z,977.14
2019-04-22T08:45:39.006Z,977.09
2019-04-22T08:46:40.970Z,977.18
2019-04-22T08:48:36.475Z,977.10
2019-04-22T08:49:44.483Z,977.06
2019-04-22T08:50:29.521Z,977.13
2019-04-22T08:52:27.574Z,977.11
2019-04-22T08:53:45.421Z,977.01
2019-04-22T08:56:39.786Z,977.06
2019-04-22T08:57:55.553Z,977.00
2019-04-22T08:58:28.021Z,977.07
2019-04-22T08:59:22.123Z,977.02
2019-04-22T09:00:34.223Z,976.96
2019-04-22T09:02:39.949Z,976.95
2019-04-22T09:03:40.049Z,977.06
2019-04-22T09:04:30.551Z,976.93
2019-04-22T09:05:48.598Z,976.91
2019-04-22T09:06:49.454Z,977.02
2019-04-22T09:08:34.069Z,976.96
2019-04-22T09:10:37.952Z,976.98
2019-04-22T09:11:33.758Z,976.94
2019-04-22T09:12:51.755Z,976.94
2019-04-22T09:13:31.762Z,976.97
2019-04-22T09:14:40.576Z,976.94
2019-04-22T09:15:34.529Z,976.98
2019-04-22T09:16:39.391Z,976.91
2019-04-22T09:17:35.113Z,976.93
2019-04-22T09:18:28.518Z,976.86
2019-04-22T09:19:24.068Z,976.97
2019-04-22T09:21:38.952Z,976.83
2019-04-22T09:22:39.422Z,976.87
2019-04-22T09:23:30.209Z,976.89
2019-04-22T09:24:30.353Z,976.92
2019-04-22T09:25:36.032Z,976.85
2019-04-22T09:26:30.711Z,976.85
2019-04-22T09:27:41.245Z,976.94
2019-04-22T09:28:37.747Z,976.91
2019-04-22T09:30:43.308Z,976.86
2019-04-22T09:31:37.243Z,976.82
2019-04-22T09:32:38.875Z,976.85
2019-04-22T09:33:30.331Z,976.89
2019-04-22T09:34:41.700Z,976.82
2019-04-22T09:35:38.682Z,976.70
2019-04-22T09:36:29.768Z,976.72
2019-04-22T09:37:39.173Z,976.69
2019-04-22T09:38:38.193Z,976.69
2019-04-22T09:39:29.403Z,976.76
2019-04-22T09:40:37.042Z,976.66
2019-04-22T09:41:41.267Z,976.80
2019-04-22T09:42:39.778Z,976.67
2019-04-22T09:44:34.773Z,976.67
2019-04-22T09:45:41.820Z,976.67
2019-04-22T09:46:45.441Z,976.61
2019-04-22T09:47:40.065Z,976.64
2019-04-22T09:48:33.188Z,976.62
2019-04-22T09:50:29.360Z,976.64
2019-04-22T09:51:37.429Z,976.51
2019-04-22T09:52:28.010Z,976.58
2019-04-22T09:55:29.867Z,976.61
2019-04-22T09:56:41.832Z,976.54
2019-04-22T09:57:24.485Z,976.57
2019-04-22T09:58:39.805Z,976.61
2019-04-22T09:59:36.723Z,976.62
2019-04-22T10:00:37.560Z,976.69
2019-04-22T10:01:38.463Z,976.55
2019-04-22T10:03:25.894Z,976.51
2019-04-22T10:06:27.869Z,976.56
2019-04-22T10:07:27.254Z,976.48
2019-04-22T10:08:41.145Z,976.50
2019-04-22T10:09:51.750Z,976.47
2019-04-22T10:10:37.984Z,976.43
2019-04-22T10:12:36.525Z,976.44
2019-04-22T10:13:45.136Z,976.46
2019-04-22T10:15:25.784Z,976.49
2019-04-22T10:16:37.130Z,976.49
2019-04-22T10:17:39.668Z,976.49
2019-04-22T10:18:42.017Z,976.53
2019-04-22T10:19:39.305Z,976.52
2019-04-22T10:21:35.310Z,976.49
2019-04-22T10:22:39.354Z,976.50
2019-04-22T10:23:39.272Z,976.47
2019-04-22T10:24:31.954Z,976.49
2019-04-22T10:25:35.397Z,976.49
2019-04-22T10:26:40.935Z,976.42
2019-04-22T10:27:25.898Z,976.33
2019-04-22T10:28:32.260Z,976.43
2019-04-22T10:29:43.455Z,976.37
2019-04-22T10:30:43.903Z,976.46
2019-04-22T10:31:39.818Z,976.36
2019-04-22T10:32:38.071Z,976.30
2019-04-22T10:33:27.127Z,976.38
2019-04-22T10:34:23.258Z,976.42
2019-04-22T10:35:17.280Z,976.30
2019-04-22T10:36:13.029Z,976.34
2019-04-22T10:37:16.283Z,976.30
2019-04-22T10:38:12.349Z,976.22
2019-04-22T10:39:12.671Z,976.26
2019-04-22T10:40:13.404Z,976.39
2019-04-22T10:41:12.400Z,976.34
2019-04-22T10:42:11.672Z,976.26
2019-04-22T10:43:11.696Z,976.26
2019-04-22T10:44:12.909Z,976.23
2019-04-22T10:45:12.366Z,976.34
2019-04-22T10:46:12.161Z,976.19
2019-04-22T10:47:11.914Z,976.20
2019-04-22T10:48:12.390Z,976.16
2019-04-22T10:49:12.708Z,976.22
2019-04-22T10:50:12.285Z,976.11
2019-04-22T10:51:12.698Z,976.16
2019-04-22T10:52:12.916Z,976.22
2019-04-22T10:53:11.670Z,976.16
2019-04-22T10:54:11.692Z,976.20
2019-04-22T10:55:11.743Z,976.14
2019-04-22T10:56:12.679Z,976.15
2019-04-22T10:57:11.704Z,976.22
2019-04-22T10:58:12.811Z,976.20
2019-04-22T10:59:11.684Z,976.18
2019-04-22T11:00:11.708Z,976.19
2019-04-22T11:01:11.687Z,976.24
2019-04-22T11:02:11.790Z,976.16
2019-04-22T11:03:12.077Z,976.15
2019-04-22T11:04:13.131Z,976.17
2019-04-22T11:05:12.252Z,976.12
2019-04-22T11:06:11.722Z,976.18
2019-04-22T11:07:13.197Z,976.16
2019-04-22T11:08:22.705Z,976.15
2019-04-22T11:09:12.446Z,976.08
2019-04-22T11:10:32.359Z,976.02
2019-04-22T11:11:26.214Z,975.99
2019-04-22T11:12:16.790Z,975.95
2019-04-22T11:13:11.713Z,975.96
2019-04-22T11:14:12.863Z,975.95
2019-04-22T11:15:11.812Z,975.95
2019-04-22T11:16:11.780Z,975.95
2019-04-22T11:17:11.699Z,975.92
2019-04-22T11:18:11.731Z,975.88
2019-04-22T11:19:11.905Z,975.91
2019-04-22T11:20:11.721Z,975.94
2019-04-22T11:21:11.720Z,975.95
2019-04-22T11:22:20.029Z,975.96
2019-04-22T11:23:11.704Z,976.00
2019-04-22T11:24:12.614Z,975.91
2019-04-22T11:25:11.950Z,976.01
2019-04-22T11:26:12.220Z,975.94
2019-04-22T11:27:12.637Z,976.07
2019-04-22T11:28:11.818Z,975.95
2019-04-22T11:29:12.059Z,975.95
2019-04-22T11:30:13.394Z,975.97
2019-04-22T11:31:12.479Z,975.93
2019-04-22T11:32:12.921Z,975.89
2019-04-22T11:33:12.076Z,975.82
2019-04-22T11:34:13.007Z,975.79
2019-04-22T11:35:11.946Z,975.91
2019-04-22T11:36:11.758Z,975.87
2019-04-22T11:37:12.270Z,975.87
2019-04-22T11:38:12.907Z,975.96
2019-04-22T11:39:13.589Z,975.84
2019-04-22T11:40:18.921Z,975.84
2019-04-22T11:41:12.637Z,975.82
2019-04-22T11:42:12.104Z,975.75
2019-04-22T11:43:12.406Z,975.86
2019-04-22T11:44:11.739Z,975.93
2019-04-22T11:45:13.112Z,975.82
2019-04-22T11:46:11.739Z,975.91
2019-04-22T11:47:11.900Z,975.90
2019-04-22T11:48:13.167Z,975.87
2019-04-22T11:49:12.126Z,975.82
2019-04-22T11:50:12.181Z,975.83
2019-04-22T11:51:11.773Z,975.93
2019-04-22T11:52:14.437Z,975.68
2019-04-22T11:53:13.020Z,975.87
2019-04-22T11:54:12.545Z,975.76
2019-04-22T11:55:12.856Z,975.82
2019-04-22T11:56:13.008Z,975.73
2019-04-22T11:57:12.852Z,975.74
2019-04-22T11:58:12.901Z,975.78
2019-04-22T11:59:12.913Z,975.81
2019-04-22T12:00:12.676Z,975.77
2019-04-22T12:01:12.777Z,975.78
2019-04-22T12:02:14.428Z,975.70
2019-04-22T12:03:12.667Z,975.77
2019-04-22T12:04:12.072Z,975.73
2019-04-22T12:05:12.022Z,975.74
2019-04-22T12:06:11.769Z,975.73
2019-04-22T12:07:12.828Z,975.67
2019-04-22T12:08:13.103Z,975.60
2019-04-22T12:09:12.135Z,975.71
2019-04-22T12:10:19.236Z,975.78
2019-04-22T12:11:11.760Z,975.71
2019-04-22T12:12:11.998Z,975.68
2019-04-22T12:13:12.267Z,975.57
2019-04-22T12:14:11.856Z,975.66
2019-04-22T12:15:12.712Z,975.58
2019-04-22T12:16:11.797Z,975.62
2019-04-22T12:17:11.801Z,975.59
2019-04-22T12:18:13.014Z,975.56
2019-04-22T12:19:13.028Z,975.47
2019-04-22T12:20:14.051Z,975.65
2019-04-22T12:21:13.166Z,975.59
2019-04-22T12:22:13.185Z,975.56
2019-04-22T12:23:12.726Z,975.54
2019-04-22T12:24:13.060Z,975.54
2019-04-22T12:25:12.472Z,975.60
2019-04-22T12:26:15.025Z,975.58
2019-04-22T12:27:11.794Z,975.53
2019-04-22T12:28:12.992Z,975.52
2019-04-22T12:29:13.178Z,975.57
2019-04-22T12:30:11.800Z,975.46
2019-04-22T12:31:13.357Z,975.59
2019-04-22T12:32:11.800Z,975.59
2019-04-22T12:33:14.546Z,975.54
2019-04-22T12:34:13.202Z,975.49
2019-04-22T12:35:11.799Z,975.46
2019-04-22T12:36:12.833Z,975.45
2019-04-22T12:37:14.905Z,975.47
2019-04-22T12:38:14.319Z,975.44
2019-04-22T12:39:11.817Z,975.51
2019-04-22T12:40:13.075Z,975.51
2019-04-22T12:41:12.596Z,975.40
2019-04-22T12:42:13.066Z,975.45
2019-04-22T12:43:12.847Z,975.50
2019-04-22T12:44:11.824Z,975.34
2019-04-22T12:45:12.170Z,975.31
2019-04-22T12:46:12.166Z,975.27
2019-04-22T12:47:13.048Z,975.32
2019-04-22T12:48:12.823Z,975.30
2019-04-22T12:49:12.166Z,975.33
2019-04-22T12:50:17.810Z,975.26
2019-04-22T12:51:13.183Z,975.24
2019-04-22T12:52:23.419Z,975.22
2019-04-22T12:53:16.703Z,975.23
2019-04-22T12:54:13.138Z,975.20
2019-04-22T12:55:12.056Z,975.27
2019-04-22T12:56:12.697Z,975.17
2019-04-22T12:57:12.342Z,975.19
2019-04-22T12:58:11.940Z,975.11
2019-04-22T12:59:11.860Z,975.18
2019-04-22T13:00:13.459Z,975.14
2019-04-22T13:01:12.839Z,975.20
2019-04-22T13:02:13.376Z,975.18
2019-04-22T13:03:11.865Z,975.09
2019-04-22T13:04:14.184Z,975.23
2019-04-22T13:05:12.450Z,975.05
2019-04-22T13:06:12.039Z,975.02
2019-04-22T13:07:11.937Z,975.06
2019-04-22T13:08:11.862Z,974.98
2019-04-22T13:09:12.663Z,975.09
2019-04-22T13:10:11.897Z,975.04
2019-04-22T13:11:14.452Z,975.06
2019-04-22T13:12:13.140Z,975.14
2019-04-22T13:13:13.218Z,975.05
2019-04-22T13:14:12.738Z,975.07
2019-04-22T13:15:11.882Z,975.10
2019-04-22T13:16:13.385Z,975.08
2019-04-22T13:17:12.275Z,975.02
2019-04-22T13:18:20.788Z,975.05
2019-04-22T13:19:15.241Z,975.05
2019-04-22T13:20:15.088Z,975.03
2019-04-22T13:21:13.105Z,975.00
2019-04-22T13:22:12.551Z,975.13
2019-04-22T13:23:11.888Z,975.06
2019-04-22T13:24:13.220Z,975.05
2019-04-22T13:25:12.435Z,975.03
2019-04-22T13:26:12.771Z,975.03
2019-04-22T13:27:12.973Z,974.94
2019-04-22T13:28:13.202Z,974.96
2019-04-22T13:29:12.878Z,974.94
2019-04-22T13:30:12.462Z,974.94
2019-04-22T13:31:11.922Z,974.95
2019-04-22T13:32:13.199Z,974.95
2019-04-22T13:33:12.629Z,974.95
2019-04-22T13:35:12.819Z,974.93
2019-04-22T13:36:12.068Z,974.91
2019-04-22T13:37:12.810Z,974.93
2019-04-22T13:38:12.967Z,974.94
2019-04-22T13:39:13.165Z,974.84
2019-04-22T13:40:12.781Z,974.89
2019-04-22T13:41:26.742Z,974.92
2019-04-22T13:42:16.181Z,974.87
2019-04-22T13:43:13.168Z,974.82
2019-04-22T13:44:12.744Z,974.81
2019-04-22T13:45:11.927Z,974.73
2019-04-22T13:46:12.477Z,974.85
2019-04-22T13:47:28.410Z,974.74
2019-04-22T13:48:33.581Z,974.86
2019-04-22T13:49:40.686Z,974.80
2019-04-22T13:52:45.148Z,974.78
2019-04-22T13:53:44.746Z,974.79
2019-04-22T13:54:48.627Z,974.69
2019-04-22T13:55:40.870Z,974.83
2019-04-22T13:56:32.831Z,974.81
2019-04-22T13:57:26.162Z,974.81
2019-04-22T13:58:24.312Z,974.77
2019-04-22T13:59:23.043Z,974.73
2019-04-22T14:00:13.532Z,974.70
2019-04-22T14:01:12.726Z,974.75
2019-04-22T14:02:12.769Z,974.69
2019-04-22T14:03:12.875Z,974.74
2019-04-22T14:04:12.449Z,974.65
2019-04-22T14:05:12.859Z,974.75
2019-04-22T14:06:13.185Z,974.68
2019-04-22T14:07:12.642Z,974.65
2019-04-22T14:08:12.651Z,974.69
2019-04-22T14:09:13.566Z,974.67
2019-04-22T14:10:12.221Z,974.73
2019-04-22T14:11:21.542Z,974.68
2019-04-22T14:12:13.782Z,974.62
2019-04-22T14:13:12.218Z,974.68
2019-04-22T14:14:12.742Z,974.66
2019-04-22T14:15:11.964Z,974.61
2019-04-22T14:16:13.280Z,974.57
2019-04-22T14:17:13.118Z,974.66
2019-04-22T14:18:12.898Z,974.70
2019-04-22T14:19:12.031Z,974.65
2019-04-22T14:20:13.129Z,974.68
2019-04-22T14:21:12.513Z,974.60
2019-04-22T14:22:11.992Z,974.57
2019-04-22T14:23:13.646Z,974.67
2019-04-22T14:24:13.797Z,974.64
2019-04-22T14:25:12.559Z,974.61
2019-04-22T14:26:13.357Z,974.64
2019-04-22T14:27:25.572Z,974.62
2019-04-22T14:28:16.938Z,974.68
2019-04-22T14:29:13.390Z,974.68
2019-04-22T14:30:12.566Z,974.67
2019-04-22T14:31:12.758Z,974.69
2019-04-22T14:33:12.267Z,974.57
2019-04-22T14:34:13.368Z,974.64
2019-04-22T14:35:13.246Z,974.66
2019-04-22T14:36:11.986Z,974.63
2019-04-22T14:37:12.102Z,974.61
2019-04-22T14:38:12.405Z,974.60
2019-04-22T14:39:12.346Z,974.65
2019-04-22T14:40:13.605Z,974.63
2019-04-22T14:41:30.532Z,974.58
2019-04-22T14:43:24.731Z,974.56
2019-04-22T14:44:23.302Z,974.74
2019-04-22T14:44:24.523Z,974.52
2019-04-22T14:45:41.550Z,974.58
2019-04-22T14:46:29.834Z,974.54
2019-04-22T14:47:26.524Z,974.58